METAR Data
IDs: Format: Raw Decoded Include TAF

Data at: 1102 UTC 18 Jan 2022

KBWW 181055Z AUTO 29023G29KT 10SM CLR 05/M01 A2952 RMK AO2
KBWW 181035Z AUTO 29022KT 10SM CLR 06/M01 A2952 RMK AO2
KBWW 181015Z AUTO 29021KT 10SM CLR 06/M01 A2952 RMK AO2
KBWW 180955Z AUTO 29020KT 10SM SCT085 06/M02 A2953 RMK AO2
KBWW 180935Z AUTO 28018KT 10SM OVC085 07/M02 A2953 RMK AO2
KBWW 180915Z AUTO 27019KT 10SM OVC090 07/M02 A2953 RMK AO2
KBWW 180855Z AUTO 27015KT 10SM OVC095 07/M02 A2952 RMK AO2
KBWW 180835Z AUTO 28013G21KT 10SM SCT080 BKN100 06/M02 A2952 RMK AO2
KBWW 180815Z AUTO 26016KT 10SM BKN075 OVC085 06/M02 A2953 RMK AO2
KBWW 180755Z AUTO 27014KT 10SM FEW060 BKN075 OVC110 05/M02 A2952 RMK AO2
KBWW 180735Z AUTO 27016KT 10SM FEW065 BKN080 OVC120 06/M02 A2953 RMK AO2
KBWW 180715Z AUTO 27013KT 10SM FEW070 SCT085 BKN120 03/M02 A2953 RMK AO2
KBWW 180655Z AUTO 25014KT 10SM CLR 03/M02 A2954 RMK AO2
KBWW 180635Z AUTO 25015G20KT 10SM CLR 04/M02 A2954 RMK AO2
KBWW 180615Z AUTO 25014KT 10SM CLR 03/M02 A2955 RMK AO2
KBWW 180555Z AUTO 24016KT 10SM CLR 04/M02 A2955 RMK AO2
KBWW 180535Z AUTO 23015KT 10SM CLR 03/M02 A2954 RMK AO2
KBWW 180515Z AUTO 24014KT 10SM CLR 04/M02 A2955 RMK AO2
KBWW 180455Z AUTO 26014KT 10SM CLR 04/M02 A2956 RMK AO2
KBWW 180435Z AUTO 25016KT 10SM CLR 03/M02 A2956 RMK AO2
KBWW 180415Z AUTO 25016KT 10SM CLR 03/M01 A2957 RMK AO2
KBWW 180355Z AUTO 25015KT 10SM CLR 03/M01 A2958 RMK AO2
KBWW 180335Z AUTO 24015KT 10SM CLR 01/M01 A2958 RMK AO2
KBWW 180315Z AUTO 24014KT 10SM CLR 02/M01 A2959 RMK AO2
KBWW 180255Z AUTO 25014KT 10SM CLR 02/M01 A2960 RMK AO2
KBWW 180235Z AUTO 26013KT 10SM CLR 02/M01 A2961 RMK AO2
KBWW 180215Z AUTO 25015KT 10SM CLR 02/M01 A2961 RMK AO2
KBWW 180155Z AUTO 25014KT 10SM CLR 02/M01 A2962 RMK AO2
KBWW 180135Z AUTO 26012KT 10SM CLR 03/M01 A2962 RMK AO2
KBWW 180115Z AUTO 25013KT 10SM CLR 03/M01 A2963 RMK AO2
KBWW 180055Z AUTO 24011KT 10SM CLR 02/M00 A2963 RMK AO2
KBWW 180035Z AUTO 24010KT 10SM CLR 02/M01 A2964 RMK AO2
KBWW 180015Z AUTO 24010KT 10SM CLR 02/M01 A2964 RMK AO2
KBWW 172355Z AUTO 25011KT 10SM CLR 04/M01 A2964 RMK AO2
KBWW 172335Z AUTO 26013KT 10SM CLR 05/M01 A2965 RMK AO2
KBWW 172315Z AUTO 25011KT 10SM CLR 04/M01 A2965 RMK AO2
KBWW 172255Z AUTO 26011KT 10SM CLR 06/M01 A2966 RMK AO2
KBWW 172235Z AUTO 26010KT 10SM CLR 07/M00 A2967 RMK AO2
KBWW 172215Z AUTO 25011KT 10SM CLR 08/M00 A2966 RMK AO2
KBWW 172155Z AUTO 27005KT 10SM CLR 09/M01 A2968 RMK AO2
KBWW 172135Z AUTO 29004KT 10SM CLR 09/M01 A2968 RMK AO2
KBWW 172115Z AUTO 30007KT 10SM CLR 09/M01 A2969 RMK AO2
KBWW 172055Z AUTO 30009KT 10SM CLR 09/M01 A2968 RMK AO2
KBWW 172035Z AUTO 28008KT 10SM CLR 08/M01 A2969 RMK AO2
KBWW 172015Z AUTO 29009KT 10SM CLR 08/M01 A2968 RMK AO2
KBWW 171955Z AUTO 28012KT 10SM CLR 08/M01 A2970 RMK AO2
KBWW 171935Z AUTO 28012KT 10SM CLR 08/M01 A2970 RMK AO2
KBWW 171915Z AUTO 29013KT 10SM CLR 08/M01 A2973 RMK AO2
KBWW 171855Z AUTO 28010KT 10SM CLR 07/M01 A2972 RMK AO2
KBWW 171835Z AUTO 30011KT 10SM CLR 07/M01 A2972 RMK AO2
KBWW 171815Z AUTO 29009G15KT 10SM CLR 07/M01 A2973 RMK AO2
KBWW 171755Z AUTO 28011KT 10SM CLR 06/M01 A2973 RMK AO2
KBWW 171735Z AUTO 29012G17KT 10SM CLR 06/M02 A2973 RMK AO2
KBWW 171715Z AUTO 30014KT 10SM CLR 05/M02 A2974 RMK AO2
KBWW 171655Z AUTO 29012KT 10SM CLR 05/M02 A2974 RMK AO2
KBWW 171635Z AUTO 29014KT 10SM CLR 04/M02 A2974 RMK AO2
KBWW 171615Z AUTO 27014KT 10SM CLR 03/M02 A2974 RMK AO2
KBWW 171555Z AUTO 28013KT 10SM CLR 02/M02 A2974 RMK AO2
KBWW 171535Z AUTO 27015KT 10SM CLR 02/M03 A2973 RMK AO2
KBWW 171515Z AUTO 27013KT 10SM CLR 01/M03 A2973 RMK AO2
KBWW 171455Z AUTO 27013KT 10SM CLR 00/M03 A2972 RMK AO2
KBWW 171435Z AUTO 27013KT 10SM CLR 00/M03 A2972 RMK AO2
KBWW 171415Z AUTO 28011KT 10SM CLR 00/M03 A2972 RMK AO2
KBWW 171355Z AUTO 29010G16KT 10SM CLR 00/M03 A2972 RMK AO2
KBWW 171335Z AUTO 28011KT 10SM CLR 00/M03 A2972 RMK AO2
KBWW 171315Z AUTO 28013KT 10SM CLR 00/M03 A2972 RMK AO2
KBWW 171255Z AUTO 28012KT 10SM CLR 00/M03 A2972 RMK AO2
KBWW 171235Z AUTO 25011KT 10SM CLR M01/M03 A2972 RMK AO2
KBWW 171215Z AUTO 24012KT 10SM CLR M01/M03 A2972 RMK AO2
KBWW 171155Z AUTO 24012KT 10SM CLR M00/M02 A2972 RMK AO2
KBWW 171135Z AUTO 23012KT 10SM FEW075 M00/M02 A2972 RMK AO2
KBWW 171115Z AUTO 22013KT 10SM BKN070 00/M02 A2973 RMK AO2
KBWW 171055Z AUTO 21013KT 10SM OVC070 01/M01 A2973 RMK AO2
KBWW 171035Z AUTO 21013KT 10SM OVC070 01/M01 A2973 RMK AO2
KBWW 171015Z AUTO 21012KT 10SM OVC065 01/M01 A2974 RMK AO2
KBWW 170955Z AUTO 22013KT 10SM OVC065 01/M01 A2975 RMK AO2
KBWW 170935Z AUTO 21013KT 10SM OVC065 00/M01 A2976 RMK AO2
KBWW 170915Z AUTO 21013KT 10SM BKN070 OVC075 00/M01 A2976 RMK AO2
KBWW 170855Z AUTO 22013KT 10SM FEW055 BKN070 OVC075 00/M01 A2977 RMK AO2
KBWW 170835Z AUTO 21012KT 10SM BKN060 OVC070 M00/M01 A2978 RMK AO2
KBWW 170815Z AUTO 21012KT 10SM BKN060 OVC070 M00/M02 A2979 RMK AO2
KBWW 170755Z AUTO 22013KT 10SM FEW055 BKN070 OVC075 M01/M01 A2981 RMK AO2
KBWW 170735Z AUTO 20009KT 10SM SCT055 BKN065 OVC075 M01/M02 A2982 RMK AO2
KBWW 170715Z AUTO 21010KT 10SM OVC065 M01/M02 A2983 RMK AO2
KBWW 170655Z AUTO 22008KT 10SM BKN065 OVC075 M02/M02 A2984 RMK AO2
KBWW 170635Z AUTO 22007KT 10SM BKN070 BKN080 BKN100 M02/M03 A2985 RMK AO2
KBWW 170615Z AUTO 22010KT 10SM FEW110 M02/M03 A2986 RMK AO2
KBWW 170555Z AUTO 24009KT 10SM CLR M02/M03 A2987 RMK AO2
KBWW 170535Z AUTO 24011KT 10SM CLR M02/M03 A2988 RMK AO2
KBWW 170515Z AUTO 24013KT 10SM CLR M03/M03 A2989 RMK AO2
KBWW 170455Z AUTO 24011KT 10SM CLR M03/M04 A2989 RMK AO2
KBWW 170435Z AUTO 25012KT 10SM CLR M02/M03 A2990 RMK AO2
KBWW 170415Z AUTO 24012KT 10SM CLR M02/M03 A2990 RMK AO2
KBWW 170355Z AUTO 24013KT 10SM CLR M03/M03 A2992 RMK AO2
KBWW 170335Z AUTO 24012KT 10SM CLR M02/M03 A2993 RMK AO2
KBWW 170315Z AUTO 23010KT 10SM CLR M03/M03 A2994 RMK AO2
KBWW 170255Z AUTO 24010KT 10SM CLR M02/M02 A2995 RMK AO2
KBWW 170235Z AUTO 25009KT 10SM CLR M02/M02 A2996 RMK AO2
KBWW 170215Z AUTO 26011KT 10SM CLR M02/M02 A2997 RMK AO2
KBWW 170155Z AUTO 25010KT 10SM CLR M02/M02 A2998 RMK AO2
KBWW 170135Z AUTO 25010KT 10SM CLR M02/M02 A2997 RMK AO2
KBWW 170115Z AUTO 26008KT 10SM CLR M01/M03 A2998 RMK AO2
KBWW 170055Z AUTO 27009KT 10SM CLR 00/M02 A2998 RMK AO2
KBWW 170035Z AUTO 28009KT 10SM SCT036 SCT043 01/M02 A2998 RMK AO2
KBWW 170015Z AUTO 29009KT 10SM OVC036 02/M02 A2998 RMK AO2
KBWW 162355Z AUTO 28008KT 10SM BKN035 BKN040 02/M02 A2998 RMK AO2
KBWW 162335Z AUTO 28009KT 10SM CLR 02/M03 A3000 RMK AO2
KBWW 162315Z AUTO 29011KT 10SM SCT037 03/M03 A3000 RMK AO2